sensor_id;sensor_type;location;lat;lon;timestamp;pressure;altitude;pressure_sealevel;temperature;humidity
929;BME280;451;47.988;7.842;2023-09-07T00:08:32;98646.41;;;20.00;96.75
929;BME280;451;47.988;7.842;2023-09-07T00:17:35;98634.78;;;19.95;95.92
929;BME280;451;47.988;7.842;2023-09-07T00:26:40;98603.25;;;19.55;96.00
929;BME280;451;47.988;7.842;2023-09-07T00:35:43;98644.19;;;19.67;97.62
929;BME280;451;47.988;7.842;2023-09-07T00:44:48;98645.34;;;19.71;95.90
929;BME280;451;47.988;7.842;2023-09-07T00:53:52;98660.03;;;19.62;96.69
929;BME280;451;47.988;7.842;2023-09-07T01:02:57;98676.19;;;19.24;99.21
929;BME280;451;47.988;7.842;2023-09-07T01:12:00;98630.47;;;18.84;100.00
929;BME280;451;47.988;7.842;2023-09-07T01:21:05;98648.66;;;19.30;99.22
929;BME280;451;47.988;7.842;2023-09-07T01:30:11;98648.00;;;19.35;97.11
929;BME280;451;47.988;7.842;2023-09-07T01:39:15;98640.44;;;19.14;100.00
929;BME280;451;47.988;7.842;2023-09-07T01:48:20;98630.78;;;18.94;99.02
929;BME280;451;47.988;7.842;2023-09-07T01:57:23;98627.31;;;18.69;100.00
929;BME280;451;47.988;7.842;2023-09-07T02:06:28;98632.94;;;18.61;100.00
929;BME280;451;47.988;7.842;2023-09-07T02:15:31;98611.13;;;18.71;100.00
929;BME280;451;47.988;7.842;2023-09-07T02:24:36;98632.97;;;18.79;99.99
929;BME280;451;47.988;7.842;2023-09-07T02:33:39;98631.03;;;19.11;96.43
929;BME280;451;47.988;7.842;2023-09-07T02:42:44;98629.91;;;19.37;94.20
929;BME280;451;47.988;7.842;2023-09-07T02:51:47;98630.25;;;19.47;94.73
929;BME280;451;47.988;7.842;2023-09-07T03:00:52;98633.91;;;19.10;98.25
929;BME280;451;47.988;7.842;2023-09-07T03:09:56;98629.81;;;18.64;99.46
929;BME280;451;47.988;7.842;2023-09-07T03:19:01;98634.59;;;18.24;100.00
929;BME280;451;47.988;7.842;2023-09-07T03:28:05;98635.28;;;18.44;100.00
929;BME280;451;47.988;7.842;2023-09-07T03:37:12;98643.97;;;18.33;99.80
929;BME280;451;47.988;7.842;2023-09-07T03:46:15;98644.63;;;18.29;100.00
929;BME280;451;47.988;7.842;2023-09-07T03:55:19;98647.19;;;18.10;100.00
929;BME280;451;47.988;7.842;2023-09-07T04:04:23;98647.63;;;18.01;100.00
929;BME280;451;47.988;7.842;2023-09-07T04:13:27;98655.59;;;18.07;100.00
929;BME280;451;47.988;7.842;2023-09-07T04:22:30;98665.44;;;18.00;100.00
929;BME280;451;47.988;7.842;2023-09-07T04:31:35;98670.81;;;17.87;100.00
929;BME280;451;47.988;7.842;2023-09-07T04:40:39;98659.25;;;17.68;100.00
929;BME280;451;47.988;7.842;2023-09-07T04:49:48;98665.38;;;17.69;100.00
929;BME280;451;47.988;7.842;2023-09-07T04:58:51;98655.38;;;17.58;100.00
929;BME280;451;47.988;7.842;2023-09-07T05:07:56;98670.94;;;17.54;100.00
929;BME280;451;47.988;7.842;2023-09-07T05:16:59;98674.19;;;17.63;100.00
929;BME280;451;47.988;7.842;2023-09-07T05:26:04;98688.91;;;17.72;100.00
929;BME280;451;47.988;7.842;2023-09-07T05:35:08;98688.28;;;18.14;100.00
929;BME280;451;47.988;7.842;2023-09-07T05:44:13;98690.78;;;18.09;100.00
929;BME280;451;47.988;7.842;2023-09-07T05:53:18;98691.19;;;18.06;100.00
929;BME280;451;47.988;7.842;2023-09-07T06:02:22;98698.41;;;18.93;96.44
929;BME280;451;47.988;7.842;2023-09-07T06:11:26;98685.53;;;19.15;95.64
929;BME280;451;47.988;7.842;2023-09-07T06:20:30;98696.25;;;19.52;93.19
929;BME280;451;47.988;7.842;2023-09-07T06:29:35;98686.25;;;19.65;91.03
929;BME280;451;47.988;7.842;2023-09-07T06:38:40;98628.44;;;19.78;88.90
929;BME280;451;47.988;7.842;2023-09-07T06:47:43;98672.19;;;20.36;88.17
929;BME280;451;47.988;7.842;2023-09-07T06:56:48;98699.38;;;20.86;85.61
929;BME280;451;47.988;7.842;2023-09-07T07:05:52;98664.19;;;21.01;84.40
929;BME280;451;47.988;7.842;2023-09-07T07:14:57;98713.06;;;21.55;84.89
929;BME280;451;47.988;7.842;2023-09-07T07:24:00;98687.06;;;21.55;80.45
929;BME280;451;47.988;7.842;2023-09-07T07:33:05;98714.38;;;22.49;79.43
929;BME280;451;47.988;7.842;2023-09-07T07:42:09;98702.47;;;22.85;81.03
929;BME280;451;47.988;7.842;2023-09-07T07:51:14;98703.75;;;23.71;77.95
929;BME280;451;47.988;7.842;2023-09-07T08:00:19;98706.50;;;23.98;75.43
929;BME280;451;47.988;7.842;2023-09-07T08:09:30;98666.22;;;23.98;72.30
929;BME280;451;47.988;7.842;2023-09-07T08:18:33;98705.97;;;24.44;71.51
929;BME280;451;47.988;7.842;2023-09-07T08:27:38;98716.19;;;24.21;70.31
929;BME280;451;47.988;7.842;2023-09-07T08:36:45;98702.09;;;24.89;69.31
929;BME280;451;47.988;7.842;2023-09-07T08:45:53;98705.72;;;25.42;68.54
929;BME280;451;47.988;7.842;2023-09-07T08:55:01;98702.09;;;24.89;72.59
929;BME280;451;47.988;7.842;2023-09-07T09:04:07;98696.22;;;24.92;74.59
929;BME280;451;47.988;7.842;2023-09-07T09:13:11;98701.81;;;25.22;73.80
929;BME280;451;47.988;7.842;2023-09-07T09:22:16;98704.13;;;26.03;70.31
929;BME280;451;47.988;7.842;2023-09-07T09:31:19;98658.81;;;25.90;70.03
929;BME280;451;47.988;7.842;2023-09-07T09:40:25;98683.50;;;26.39;70.48
929;BME280;451;47.988;7.842;2023-09-07T09:49:29;98680.56;;;26.61;68.56
929;BME280;451;47.988;7.842;2023-09-07T09:58:34;98673.56;;;27.00;67.53
929;BME280;451;47.988;7.842;2023-09-07T10:07:41;98670.22;;;27.44;65.74
929;BME280;451;47.988;7.842;2023-09-07T10:16:47;98659.25;;;26.84;68.82
929;BME280;451;47.988;7.842;2023-09-07T10:25:52;98630.50;;;27.64;62.84
929;BME280;451;47.988;7.842;2023-09-07T10:35:00;98645.44;;;28.01;61.34
929;BME280;451;47.988;7.842;2023-09-07T10:44:04;98656.59;;;28.38;61.44
929;BME280;451;47.988;7.842;2023-09-07T10:53:11;98634.69;;;27.91;62.97
929;BME280;451;47.988;7.842;2023-09-07T11:02:15;98614.53;;;28.22;59.85
929;BME280;451;47.988;7.842;2023-09-07T11:11:19;98620.94;;;28.31;60.12
929;BME280;451;47.988;7.842;2023-09-07T11:20:24;98616.56;;;28.69;58.98
929;BME280;451;47.988;7.842;2023-09-07T11:29:31;98623.16;;;29.21;57.87
929;BME280;451;47.988;7.842;2023-09-07T11:38:36;98561.59;;;28.74;57.27
929;BME280;451;47.988;7.842;2023-09-07T11:47:41;98586.56;;;30.09;55.33
929;BME280;451;47.988;7.842;2023-09-07T11:56:44;98582.31;;;30.02;55.60
929;BME280;451;47.988;7.842;2023-09-07T12:05:49;98589.41;;;29.56;55.02
929;BME280;451;47.988;7.842;2023-09-07T12:14:52;98580.31;;;30.27;52.93
929;BME280;451;47.988;7.842;2023-09-07T12:23:59;98571.25;;;30.50;53.18
929;BME280;451;47.988;7.842;2023-09-07T12:33:02;98550.78;;;30.06;54.28
929;BME280;451;47.988;7.842;2023-09-07T12:42:07;98575.84;;;30.17;54.68
929;BME280;451;47.988;7.842;2023-09-07T12:51:10;98576.13;;;29.78;54.35
929;BME280;451;47.988;7.842;2023-09-07T13:00:15;98564.38;;;30.39;53.34
929;BME280;451;47.988;7.842;2023-09-07T13:09:18;98539.41;;;30.23;53.96
929;BME280;451;47.988;7.842;2023-09-07T13:18:23;98550.97;;;30.61;53.36
929;BME280;451;47.988;7.842;2023-09-07T13:27:28;98540.94;;;30.75;51.75
929;BME280;451;47.988;7.842;2023-09-07T13:36:32;98525.53;;;31.17;52.52
929;BME280;451;47.988;7.842;2023-09-07T13:45:35;98507.50;;;31.21;51.10
929;BME280;451;47.988;7.842;2023-09-07T13:54:40;98523.28;;;30.92;51.48
929;BME280;451;47.988;7.842;2023-09-07T14:03:43;98514.50;;;30.02;52.16
929;BME280;451;47.988;7.842;2023-09-07T14:12:48;98517.81;;;31.46;50.44
929;BME280;451;47.988;7.842;2023-09-07T14:21:51;98524.28;;;30.96;50.51
929;BME280;451;47.988;7.842;2023-09-07T14:30:55;98514.09;;;30.60;49.57
929;BME280;451;47.988;7.842;2023-09-07T14:40:00;98518.63;;;30.92;49.56
929;BME280;451;47.988;7.842;2023-09-07T14:49:05;98511.59;;;31.32;47.03
929;BME280;451;47.988;7.842;2023-09-07T14:58:08;98505.59;;;31.21;48.02
929;BME280;451;47.988;7.842;2023-09-07T15:07:13;98507.22;;;31.09;47.99
929;BME280;451;47.988;7.842;2023-09-07T15:16:16;98496.13;;;32.04;46.46
929;BME280;451;47.988;7.842;2023-09-07T15:25:21;98462.50;;;30.74;48.24
929;BME280;451;47.988;7.842;2023-09-07T15:34:24;98505.44;;;31.90;47.63
929;BME280;451;47.988;7.842;2023-09-07T15:43:28;98491.19;;;31.21;48.80
929;BME280;451;47.988;7.842;2023-09-07T15:52:32;98489.47;;;30.98;49.40
929;BME280;451;47.988;7.842;2023-09-07T16:01:40;98492.66;;;30.86;50.59
929;BME280;451;47.988;7.842;2023-09-07T16:10:44;98497.13;;;30.96;50.98
929;BME280;451;47.988;7.842;2023-09-07T16:19:48;98511.38;;;30.88;50.80
929;BME280;451;47.988;7.842;2023-09-07T16:28:51;98496.38;;;30.49;51.07
929;BME280;451;47.988;7.842;2023-09-07T16:37:56;98488.56;;;30.29;52.27
929;BME280;451;47.988;7.842;2023-09-07T16:46:59;98502.25;;;29.67;52.83
929;BME280;451;47.988;7.842;2023-09-07T16:56:04;98459.75;;;29.25;53.91
929;BME280;451;47.988;7.842;2023-09-07T17:05:07;98517.09;;;29.33;55.18
929;BME280;451;47.988;7.842;2023-09-07T17:14:14;98518.84;;;29.00;55.97
929;BME280;451;47.988;7.842;2023-09-07T17:23:17;98523.97;;;29.01;56.25
929;BME280;451;47.988;7.842;2023-09-07T17:32:22;98508.16;;;28.61;57.53
929;BME280;451;47.988;7.842;2023-09-07T17:41:26;98525.63;;;28.11;60.39
929;BME280;451;47.988;7.842;2023-09-07T17:50:30;98542.16;;;27.99;61.17
929;BME280;451;47.988;7.842;2023-09-07T17:59:33;98537.47;;;27.76;60.86
929;BME280;451;47.988;7.842;2023-09-07T18:08:38;98547.66;;;27.89;61.94
929;BME280;451;47.988;7.842;2023-09-07T18:17:41;98541.53;;;27.09;70.54
929;BME280;451;47.988;7.842;2023-09-07T18:26:46;98557.78;;;26.68;74.81
929;BME280;451;47.988;7.842;2023-09-07T18:35:59;98576.41;;;26.09;79.23
929;BME280;451;47.988;7.842;2023-09-07T18:45:05;98585.19;;;25.74;82.71
929;BME280;451;47.988;7.842;2023-09-07T18:54:09;98571.72;;;25.64;83.09
929;BME280;451;47.988;7.842;2023-09-07T19:03:13;98578.31;;;25.36;84.87
929;BME280;451;47.988;7.842;2023-09-07T19:12:17;98563.91;;;25.05;86.20
929;BME280;451;47.988;7.842;2023-09-07T19:21:22;98584.59;;;24.63;90.53
929;BME280;451;47.988;7.842;2023-09-07T19:30:26;98522.72;;;23.94;91.69
929;BME280;451;47.988;7.842;2023-09-07T19:39:32;98551.63;;;24.40;90.08
929;BME280;451;47.988;7.842;2023-09-07T19:48:35;98585.97;;;24.33;90.83
929;BME280;451;47.988;7.842;2023-09-07T19:57:40;98597.47;;;24.02;93.69
929;BME280;451;47.988;7.842;2023-09-07T20:06:43;98594.09;;;23.85;94.75
929;BME280;451;47.988;7.842;2023-09-07T20:15:48;98601.38;;;23.67;97.67
929;BME280;451;47.988;7.842;2023-09-07T20:24:51;98606.84;;;23.51;99.13
929;BME280;451;47.988;7.842;2023-09-07T20:33:56;98612.44;;;23.49;100.00
929;BME280;451;47.988;7.842;2023-09-07T20:42:59;98561.00;;;23.14;100.00
929;BME280;451;47.988;7.842;2023-09-07T20:52:07;98602.13;;;23.19;100.00
929;BME280;451;47.988;7.842;2023-09-07T21:01:10;98578.19;;;23.35;100.00
929;BME280;451;47.988;7.842;2023-09-07T21:10:15;98591.56;;;23.13;100.00
929;BME280;451;47.988;7.842;2023-09-07T21:19:18;98583.06;;;22.99;100.00
929;BME280;451;47.988;7.842;2023-09-07T21:28:23;98575.09;;;23.04;100.00
929;BME280;451;47.988;7.842;2023-09-07T21:37:26;98610.75;;;23.21;100.00
929;BME280;451;47.988;7.842;2023-09-07T21:46:31;98566.41;;;22.97;100.00
929;BME280;451;47.988;7.842;2023-09-07T21:55:35;98594.94;;;23.25;100.00
929;BME280;451;47.988;7.842;2023-09-07T22:04:39;98584.25;;;23.08;100.00
929;BME280;451;47.988;7.842;2023-09-07T22:13:43;98592.75;;;22.83;100.00
929;BME280;451;47.988;7.842;2023-09-07T22:22:47;98592.75;;;22.83;100.00
929;BME280;451;47.988;7.842;2023-09-07T22:31:51;98595.59;;;22.93;100.00
929;BME280;451;47.988;7.842;2023-09-07T22:40:56;98578.31;;;22.84;100.00
929;BME280;451;47.988;7.842;2023-09-07T22:50:00;98570.84;;;22.53;100.00
929;BME280;451;47.988;7.842;2023-09-07T22:59:04;98535.59;;;22.28;100.00
929;BME280;451;47.988;7.842;2023-09-07T23:08:08;98580.56;;;22.59;100.00
929;BME280;451;47.988;7.842;2023-09-07T23:17:13;98582.34;;;22.37;100.00
929;BME280;451;47.988;7.842;2023-09-07T23:26:16;98595.03;;;22.41;100.00
929;BME280;451;47.988;7.842;2023-09-07T23:35:24;98541.59;;;21.45;100.00
929;BME280;451;47.988;7.842;2023-09-07T23:44:27;98594.00;;;21.97;100.00
929;BME280;451;47.988;7.842;2023-09-07T23:53:32;98594.44;;;21.94;100.00
